Time;durP1;ratioP1;P1;durP2;ratioP2;P2;SDS_P1;SDS_P2;PMS_P1;PMS_P2;Temp;Humidity;BMP_temperature;BMP_pressure;BME280_temperature;BME280_humidity;BME280_pressure;Samples;Min_cycle;Max_cycle;Signal;HPM_P1;HPM_P2
2022/10/03 00:01:27;;;;;;;1999.90;999.90;;;12.10;99.90;;;;;;5048469;28;20465;-76
2022/10/03 00:04:09;;;;;;;1999.90;999.90;;;12.00;99.90;;;;;;5050707;28;21217;-75
2022/10/03 00:06:48;;;;;;;1999.90;999.90;;;12.00;99.90;;;;;;5053929;28;20964;-74
2022/10/03 00:09:33;;;;;;;1999.90;999.90;;;12.00;99.90;;;;;;5054512;28;20965;-75
2022/10/03 00:12:13;;;;;;;1999.90;999.90;;;12.00;99.90;;;;;;5044645;28;20509;-75
2022/10/03 00:14:49;;;;;;;1999.90;999.90;;;12.40;99.90;;;;;;5048615;28;20454;-74
2022/10/03 00:17:24;;;;;;;1999.90;999.90;;;12.00;99.90;;;;;;5047543;28;20553;-75
2022/10/03 00:20:02;;;;;;;1999.90;999.90;;;12.10;99.90;;;;;;5050228;28;20459;-74
2022/10/03 00:22:43;;;;;;;1999.90;999.90;;;12.20;99.90;;;;;;5050462;28;20478;-76
2022/10/03 00:25:25;;;;;;;1999.90;999.90;;;12.20;99.90;;;;;;5049467;28;20474;-75
2022/10/03 00:28:02;;;;;;;1999.90;999.90;;;12.30;99.90;;;;;;5051685;28;20461;-73
2022/10/03 00:30:42;;;;;;;1999.90;999.90;;;12.30;99.90;;;;;;5052093;28;20949;-74
2022/10/03 00:33:19;;;;;;;1999.90;999.90;;;12.20;99.90;;;;;;5047630;28;20492;-76
2022/10/03 00:35:59;;;;;;;1999.90;999.90;;;12.10;99.90;;;;;;5051141;28;20466;-78
2022/10/03 00:38:48;;;;;;;1999.90;999.90;;;12.20;99.90;;;;;;5048877;28;20458;-76
2022/10/03 00:41:30;;;;;;;1999.90;999.90;;;12.20;99.90;;;;;;5046299;28;20474;-74
2022/10/03 00:44:30;;;;;;;1999.90;999.90;;;12.20;99.90;;;;;;5050597;28;20474;-76
2022/10/03 00:47:21;;;;;;;1999.90;999.90;;;12.20;99.90;;;;;;5037953;28;20533;-76
2022/10/03 00:50:05;;;;;;;1999.90;999.90;;;12.20;99.90;;;;;;5050485;28;21002;-75
2022/10/03 00:52:58;;;;;;;1999.90;999.90;;;12.20;99.90;;;;;;5048517;28;21032;-73
2022/10/03 00:55:39;;;;;;;1999.90;999.90;;;12.30;99.90;;;;;;5051092;28;20638;-75
2022/10/03 00:58:24;;;;;;;1999.90;999.90;;;12.30;99.90;;;;;;5048851;28;20466;-72
2022/10/03 01:00:52;;;;;;;1999.90;999.90;;;12.30;99.90;;;;;;5052115;28;20462;-72
2022/10/03 01:03:34;;;;;;;1999.90;999.90;;;12.30;99.90;;;;;;5050822;28;20490;-76
2022/10/03 01:06:25;;;;;;;1999.90;999.90;;;12.20;99.90;;;;;;5045502;28;20486;-73
2022/10/03 01:09:10;;;;;;;1999.90;999.90;;;12.60;99.90;;;;;;5051675;28;21046;-74
2022/10/03 01:11:59;;;;;;;1999.90;999.90;;;12.20;99.90;;;;;;5049541;28;20477;-75
2022/10/03 01:14:44;;;;;;;1999.90;999.90;;;12.10;99.90;;;;;;5044600;28;20450;-75
2022/10/03 01:17:19;;;;;;;1999.90;999.90;;;12.10;99.90;;;;;;5049038;28;20458;-75
2022/10/03 01:20:03;;;;;;;1999.90;999.90;;;12.10;99.90;;;;;;5050770;28;20457;-74
2022/10/03 01:23:01;;;;;;;1999.90;999.90;;;12.20;99.90;;;;;;5048213;28;20482;-73
2022/10/03 01:25:39;;;;;;;1999.90;999.90;;;12.10;99.90;;;;;;5048129;28;20478;-76
2022/10/03 01:31:18;;;;;;;1999.90;999.90;;;12.10;99.90;;;;;;5046259;28;20481;-75
2022/10/03 01:33:55;;;;;;;1999.90;999.90;;;12.10;99.90;;;;;;5049408;28;20512;-74
2022/10/03 01:36:31;;;;;;;1999.90;999.90;;;12.10;99.90;;;;;;5049806;28;20466;-72
2022/10/03 01:39:04;;;;;;;1999.90;999.90;;;12.10;99.90;;;;;;5051261;28;20461;-74
2022/10/03 01:41:41;;;;;;;1999.90;999.90;;;12.10;99.90;;;;;;5050837;28;20470;-73
2022/10/03 01:44:23;;;;;;;1999.90;999.90;;;12.00;99.90;;;;;;5045676;28;20458;-76
2022/10/03 01:46:58;;;;;;;1999.90;999.90;;;12.00;99.90;;;;;;5051409;28;20485;-76
2022/10/03 01:49:31;;;;;;;1999.90;999.90;;;12.00;99.90;;;;;;5045451;28;20469;-75
2022/10/03 01:52:04;;;;;;;1999.90;999.90;;;12.10;99.90;;;;;;5059986;28;20505;-78
2022/10/03 01:54:40;;;;;;;1999.90;999.90;;;12.10;99.90;;;;;;5058120;28;20458;-74
2022/10/03 01:57:15;;;;;;;1999.90;999.90;;;12.20;99.90;;;;;;5044732;28;20537;-72
2022/10/03 01:59:53;;;;;;;1999.90;999.90;;;12.10;99.90;;;;;;5050337;28;20458;-76
2022/10/03 02:02:28;;;;;;;1999.90;999.90;;;12.10;99.90;;;;;;5048882;28;20485;-73
2022/10/03 02:05:03;;;;;;;1999.90;999.90;;;12.10;99.90;;;;;;5046393;28;20481;-75
2022/10/03 02:07:40;;;;;;;1999.90;999.90;;;12.30;99.90;;;;;;5049943;28;20461;-72
2022/10/03 02:10:19;;;;;;;1999.90;999.90;;;12.00;99.90;;;;;;5049743;28;20462;-73
2022/10/03 02:12:57;;;;;;;1999.90;999.90;;;12.00;99.90;;;;;;5046494;28;20478;-73
2022/10/03 02:15:31;;;;;;;1999.90;999.90;;;12.10;99.90;;;;;;5050410;28;20461;-75
2022/10/03 02:18:11;;;;;;;1999.90;999.90;;;12.00;99.90;;;;;;5050437;28;20469;-75
2022/10/03 02:20:45;;;;;;;1999.90;999.90;;;12.00;99.90;;;;;;5048582;28;20481;-75
2022/10/03 02:23:24;;;;;;;1999.90;999.90;;;12.00;99.90;;;;;;5050446;28;20482;-76
2022/10/03 02:26:02;;;;;;;1999.90;999.90;;;12.00;99.90;;;;;;5042555;28;20469;-71
2022/10/03 02:28:57;;;;;;;1999.90;999.90;;;12.00;99.90;;;;;;5045945;28;20458;-73
2022/10/03 02:32:05;;;;;;;1999.90;999.90;;;12.00;99.90;;;;;;5047704;28;20465;-77
2022/10/03 02:35:06;;;;;;;1999.90;999.90;;;12.00;99.90;;;;;;5043532;28;20540;-75
2022/10/03 02:37:55;;;;;;;1999.90;999.90;;;12.10;99.90;;;;;;5044170;28;20909;-74
2022/10/03 02:40:55;;;;;;;1999.90;999.90;;;12.00;99.90;;;;;;5045792;28;20458;-73
2022/10/03 02:43:59;;;;;;;1999.90;999.90;;;12.00;99.90;;;;;;5035453;28;20478;-74
2022/10/03 02:47:04;;;;;;;1999.90;999.90;;;12.10;99.90;;;;;;5045484;28;20474;-74
2022/10/03 02:50:03;;;;;;;1999.90;999.90;;;12.00;99.90;;;;;;5046151;28;20458;-74
2022/10/03 02:53:03;;;;;;;1999.90;999.90;;;12.00;99.90;;;;;;5046125;28;21020;-75
2022/10/03 02:56:11;;;;;;;1999.90;999.90;;;12.10;99.90;;;;;;5046777;28;20450;-72
2022/10/03 02:59:06;;;;;;;1999.90;999.90;;;12.10;99.90;;;;;;5022059;28;20459;-72
2022/10/03 03:02:10;;;;;;;1999.90;999.90;;;12.00;99.90;;;;;;5046873;28;20458;-75
2022/10/03 03:05:24;;;;;;;1999.90;999.90;;;12.10;99.90;;;;;;5047917;28;20470;-77
2022/10/03 03:08:20;;;;;;;1999.90;999.90;;;11.90;99.90;;;;;;5049662;28;20453;-73
2022/10/03 03:11:18;;;;;;;1999.90;999.90;;;11.90;99.90;;;;;;5043194;28;20970;-74
2022/10/03 03:14:29;;;;;;;1999.90;999.90;;;11.90;99.90;;;;;;5049013;28;20993;-74
2022/10/03 03:17:07;;;;;;;1999.90;999.90;;;11.90;99.90;;;;;;5048499;28;20453;-76
2022/10/03 03:20:02;;;;;;;1999.90;999.90;;;11.90;99.90;;;;;;5046876;28;20470;-74
2022/10/03 03:22:44;;;;;;;1999.90;999.90;;;11.90;99.90;;;;;;5044921;28;20481;-74
2022/10/03 03:25:26;;;;;;;1999.90;999.90;;;11.90;99.90;;;;;;5046953;28;20843;-74
2022/10/03 03:28:10;;;;;;;1999.90;999.90;;;11.90;99.90;;;;;;5048512;28;20552;-74
2022/10/03 03:30:46;;;;;;;1999.90;999.90;;;12.10;99.90;;;;;;5049616;28;20450;-76
2022/10/03 03:33:22;;;;;;;1999.90;999.90;;;11.90;99.90;;;;;;5050156;28;20462;-77
2022/10/03 03:36:00;;;;;;;1999.90;999.90;;;11.90;99.90;;;;;;5047375;28;20465;-75
2022/10/03 03:38:37;;;;;;;1999.90;999.90;;;11.90;99.90;;;;;;5044144;28;20462;-75
2022/10/03 03:41:18;;;;;;;1999.90;999.90;;;11.90;99.90;;;;;;5044205;28;20476;-73
2022/10/03 03:44:21;;;;;;;1999.90;999.90;;;11.90;99.90;;;;;;5048713;28;20501;-75
2022/10/03 03:47:13;;;;;;;1999.90;999.90;;;11.90;99.90;;;;;;5030546;28;20500;-76
2022/10/03 03:49:58;;;;;;;1999.90;999.90;;;11.80;99.90;;;;;;5046141;28;21201;-75
2022/10/03 03:52:39;;;;;;;1999.90;999.90;;;11.80;99.90;;;;;;5050657;28;20486;-74
2022/10/03 03:55:23;;;;;;;1999.90;999.90;;;11.80;99.90;;;;;;5052863;28;20499;-74
2022/10/03 03:58:07;;;;;;;1999.90;999.90;;;11.80;99.90;;;;;;5054309;28;20472;-75
2022/10/03 04:00:47;;;;;;;1999.90;999.90;;;11.80;99.90;;;;;;5049001;28;20454;-75
2022/10/03 04:03:27;;;;;;;1999.90;999.90;;;11.90;99.90;;;;;;5052841;28;21021;-72
2022/10/03 04:06:09;;;;;;;1999.90;999.90;;;11.90;99.90;;;;;;5053006;28;20568;-74
2022/10/03 04:08:51;;;;;;;1999.90;999.90;;;11.90;99.90;;;;;;5051459;28;20458;-74
2022/10/03 04:11:27;;;;;;;1999.90;999.90;;;12.00;99.90;;;;;;5047969;28;20479;-75
2022/10/03 04:14:09;;;;;;;1999.90;999.90;;;11.90;99.90;;;;;;5051899;28;20485;-76
2022/10/03 04:19:44;;;;;;;1999.90;999.90;;;11.90;99.90;;;;;;5053442;28;20449;-75
2022/10/03 04:22:28;;;;;;;1999.90;999.90;;;11.90;99.90;;;;;;5050454;28;20873;-74
2022/10/03 04:25:26;;;;;;;1999.90;999.90;;;11.90;99.90;;;;;;5050542;28;20983;-75
2022/10/03 04:28:16;;;;;;;1999.90;999.90;;;11.90;99.90;;;;;;5051311;28;20989;-75
2022/10/03 04:30:56;;;;;;;1999.90;999.90;;;11.90;99.90;;;;;;5051177;28;20461;-76
2022/10/03 04:33:37;;;;;;;1999.90;999.90;;;11.90;99.90;;;;;;5053044;28;20485;-75
2022/10/03 04:36:37;;;;;;;1999.90;999.90;;;11.90;99.90;;;;;;5052601;28;20454;-76
2022/10/03 04:39:10;;;;;;;1999.90;999.90;;;11.90;99.90;;;;;;5051310;28;20542;-75
2022/10/03 04:41:44;;;;;;;1999.90;999.90;;;12.00;99.90;;;;;;5054325;28;20520;-73
2022/10/03 04:44:26;;;;;;;1999.90;999.90;;;11.90;99.90;;;;;;5051976;28;20454;-75
2022/10/03 04:46:59;;;;;;;1999.90;999.90;;;11.90;99.90;;;;;;5051205;28;20501;-75
2022/10/03 04:49:35;;;;;;;1999.90;999.90;;;12.30;99.90;;;;;;5051770;28;20950;-72
2022/10/03 04:52:11;;;;;;;1999.90;999.90;;;12.00;99.90;;;;;;5049945;28;20482;-73
2022/10/03 04:54:49;;;;;;;1999.90;999.90;;;12.00;99.90;;;;;;5052713;28;20465;-74
2022/10/03 04:57:25;;;;;;;1999.90;999.90;;;11.90;99.90;;;;;;5051753;28;20493;-73
2022/10/03 05:00:01;;;;;;;1999.90;999.90;;;12.10;99.90;;;;;;5052921;28;20464;-74
2022/10/03 05:02:36;;;;;;;1999.90;999.90;;;11.80;99.90;;;;;;5050678;28;20486;-71
2022/10/03 05:05:25;;;;;;;1999.90;999.90;;;11.80;99.90;;;;;;5051303;28;20465;-74
2022/10/03 05:08:00;;;;;;;1999.90;999.90;;;11.70;99.90;;;;;;5045916;28;20586;-75
2022/10/03 05:10:44;;;;;;;1999.90;999.90;;;11.70;99.90;;;;;;5047181;28;20457;-73
2022/10/03 05:13:18;;;;;;;1999.90;999.90;;;11.80;99.90;;;;;;5051940;28;20486;-76
2022/10/03 05:15:56;;;;;;;1999.90;999.90;;;11.80;99.90;;;;;;5051070;28;20465;-75
2022/10/03 05:18:33;;;;;;;1999.90;999.90;;;11.80;99.90;;;;;;5050201;28;20485;-74
2022/10/03 05:21:05;;;;;;;1999.90;999.90;;;11.90;99.90;;;;;;5047254;28;20466;-75
2022/10/03 05:23:44;;;;;;;1999.90;999.90;;;11.80;99.90;;;;;;5051755;28;20485;-75
2022/10/03 05:26:22;;;;;;;1999.90;999.90;;;11.80;99.90;;;;;;5052073;28;20478;-75
2022/10/03 05:28:53;;;;;;;1999.90;999.90;;;11.80;99.90;;;;;;5052193;28;20450;-73
2022/10/03 05:31:34;;;;;;;1999.90;999.90;;;11.90;99.90;;;;;;5051959;28;20470;-76
2022/10/03 05:34:10;;;;;;;1999.90;999.90;;;11.90;99.90;;;;;;5048927;28;20489;-75
2022/10/03 05:36:55;;;;;;;1999.90;999.90;;;11.80;99.90;;;;;;5050691;28;20503;-74
2022/10/03 05:39:28;;;;;;;1999.90;999.90;;;11.90;99.90;;;;;;5050250;28;20470;-75
2022/10/03 05:42:06;;;;;;;1999.90;999.90;;;11.80;99.90;;;;;;5050654;28;20950;-75
2022/10/03 05:44:42;;;;;;;1999.90;999.90;;;11.80;99.90;;;;;;5050923;28;20552;-74
2022/10/03 05:50:26;;;;;;;1999.90;999.90;;;11.80;99.90;;;;;;5047327;28;21158;-75
2022/10/03 05:53:25;;;;;;;1999.90;999.90;;;11.90;99.90;;;;;;5052074;28;20581;-75
2022/10/03 05:56:05;;;;;;;1999.90;999.90;;;11.90;99.90;;;;;;5071111;22;20488;-70
2022/10/03 05:59:00;;;;;;;1999.90;999.90;;;11.90;99.90;;;;;;5086949;28;20464;-72
2022/10/03 06:02:00;;;;;;;1999.90;999.90;;;11.90;99.90;;;;;;5072353;28;20468;-71
2022/10/03 06:04:52;;;;;;;1999.90;999.90;;;11.90;99.90;;;;;;5085073;28;20452;-71
2022/10/03 06:07:25;;;;;;;1999.90;999.90;;;12.00;99.90;;;;;;5088710;28;20492;-71
2022/10/03 06:10:25;;;;;;;1999.90;999.90;;;12.00;99.90;;;;;;5089500;28;20468;-71
2022/10/03 06:13:07;;;;;;;1999.90;999.90;;;12.00;99.90;;;;;;5087396;28;20907;-69
2022/10/03 06:15:53;;;;;;;1999.90;999.90;;;12.00;99.90;;;;;;5085739;28;20503;-74
2022/10/03 06:19:05;;;;;;;1999.90;999.90;;;12.10;99.90;;;;;;5087961;28;22235;-71
2022/10/03 06:22:22;;;;;;;1999.90;999.90;;;12.10;99.90;;;;;;5086328;28;20539;-72
2022/10/03 06:25:31;;;;;;;1999.90;999.90;;;12.10;99.90;;;;;;5053642;28;20456;-71
2022/10/03 06:28:37;;;;;;;1999.90;999.90;;;12.20;99.90;;;;;;5088125;28;20568;-69
2022/10/03 06:31:48;;;;;;;1999.90;999.90;;;12.30;99.90;;;;;;5088014;28;20496;-71
2022/10/03 06:34:45;;;;;;;1999.90;999.90;;;12.30;99.90;;;;;;5089443;28;20513;-68
2022/10/03 06:37:48;;;;;;;1999.90;999.90;;;12.30;99.90;;;;;;5089617;28;21545;-70
2022/10/03 06:41:04;;;;;;;1999.90;999.90;;;12.30;99.90;;;;;;5051143;28;20471;-70
2022/10/03 06:43:47;;;;;;;1999.90;999.90;;;12.30;99.90;;;;;;5085763;28;20465;-70
2022/10/03 06:46:50;;;;;;;1999.90;999.90;;;12.30;99.90;;;;;;5087704;28;20567;-70
2022/10/03 06:49:59;;;;;;;1999.90;999.90;;;12.30;99.90;;;;;;5089409;28;20466;-70
2022/10/03 06:52:58;;;;;;;1999.90;999.90;;;12.30;99.90;;;;;;5083852;28;20460;-70
2022/10/03 06:55:54;;;;;;;1999.90;999.90;;;12.30;99.90;;;;;;5077215;28;20460;-70
2022/10/03 06:58:54;;;;;;;1999.90;999.90;;;12.20;99.90;;;;;;5089185;28;20463;-70
2022/10/03 07:02:00;;;;;;;1999.90;999.90;;;12.30;99.90;;;;;;5088488;28;20453;-70
2022/10/03 07:05:06;;;;;;;1999.90;999.90;;;12.30;99.90;;;;;;5065814;28;20971;-69
2022/10/03 07:08:01;;;;;;;1999.90;999.90;;;12.40;99.90;;;;;;5085643;28;20492;-69
2022/10/03 07:10:49;;;;;;;1999.90;999.90;;;12.60;99.90;;;;;;5079114;28;20896;-70
2022/10/03 07:13:51;;;;;;;1999.90;999.90;;;12.70;99.90;;;;;;5089055;28;20842;-70
2022/10/03 07:16:56;;;;;;;1999.90;999.90;;;12.90;99.90;;;;;;5046568;28;20850;-71
2022/10/03 07:19:45;;;;;;;1999.90;999.90;;;13.10;99.90;;;;;;5090053;28;20453;-73
2022/10/03 07:22:44;;;;;;;1999.90;999.90;;;13.00;99.90;;;;;;5093968;28;21087;-69
2022/10/03 07:25:30;;;;;;;1999.90;999.90;;;13.10;99.90;;;;;;5094057;28;20464;-68
2022/10/03 07:28:29;;;;;;;1999.90;999.90;;;13.00;99.90;;;;;;5095700;28;20464;-70
2022/10/03 07:31:06;;;;;;;1999.90;999.90;;;13.20;99.90;;;;;;5084793;28;20459;-70
2022/10/03 07:34:09;;;;;;;1999.90;999.90;;;13.30;99.90;;;;;;5087149;28;20448;-69
2022/10/03 07:40:18;;;;;;;1999.90;999.90;;;13.60;99.90;;;;;;5090702;28;20456;-70
2022/10/03 07:43:25;;;;;;;1999.90;999.90;;;13.80;99.90;;;;;;5088330;28;21121;-69
2022/10/03 07:46:28;;;;;;;1999.90;999.90;;;13.80;99.90;;;;;;5090783;28;20463;-70
2022/10/03 07:49:18;;;;;;;1999.90;999.90;;;14.00;99.90;;;;;;5066139;28;20451;-69
2022/10/03 07:52:09;;;;;;;1999.90;999.90;;;14.50;99.90;;;;;;5070615;28;20467;-71
2022/10/03 07:55:04;;;;;;;1999.90;999.90;;;14.10;99.90;;;;;;5091323;28;20488;-70
2022/10/03 07:58:02;;;;;;;1999.90;999.90;;;14.30;99.90;;;;;;5092047;28;20863;-71
2022/10/03 08:00:41;;;;;;;1999.90;999.90;;;14.60;99.90;;;;;;5087438;28;20464;-70
2022/10/03 08:03:46;;;;;;;1999.90;999.90;;;14.30;99.90;;;;;;5091633;28;20467;-71
2022/10/03 08:06:22;;;;;;;1999.90;999.90;;;14.20;99.90;;;;;;5072022;28;21026;-71
2022/10/03 08:09:17;;;;;;;1999.90;999.90;;;14.30;99.90;;;;;;5087576;28;20458;-70
2022/10/03 08:12:30;;;;;;;1999.90;999.90;;;14.20;99.90;;;;;;5088576;28;20467;-70
2022/10/03 08:15:03;;;;;;;1999.90;999.90;;;14.40;99.90;;;;;;5090050;28;20460;-72
2022/10/03 08:17:58;;;;;;;1999.90;999.90;;;14.10;99.90;;;;;;5090599;28;20471;-70
2022/10/03 08:20:46;;;;;;;1999.90;999.90;;;13.90;99.90;;;;;;5092786;28;20456;-72
2022/10/03 08:23:39;;;;;;;1999.90;999.90;;;13.80;99.90;;;;;;5094098;28;20440;-70
2022/10/03 08:26:17;;;;;;;1999.90;999.90;;;13.90;99.90;;;;;;5094472;28;20464;-69
2022/10/03 08:28:58;;;;;;;1999.90;999.90;;;14.20;99.90;;;;;;5094282;28;20467;-70
2022/10/03 08:31:52;;;;;;;1999.90;999.90;;;14.40;99.90;;;;;;5088757;28;21392;-70
2022/10/03 08:34:53;;;;;;;1999.90;999.90;;;14.60;99.90;;;;;;5088731;28;20465;-68
2022/10/03 08:37:53;;;;;;;1999.90;999.90;;;14.90;99.90;;;;;;5091435;28;20551;-71
2022/10/03 08:41:00;;;;;;;1999.90;999.90;;;15.00;99.90;;;;;;5091465;28;20464;-70
2022/10/03 08:43:56;;;;;;;1999.90;999.90;;;15.00;99.90;;;;;;5086213;28;20468;-70
2022/10/03 08:47:01;;;;;;;1999.90;999.90;;;15.10;99.90;;;;;;5048654;28;20495;-69
2022/10/03 08:50:16;;;;;;;1999.90;999.90;;;15.10;99.90;;;;;;5065329;28;20452;-69
2022/10/03 08:53:05;;;;;;;1999.90;999.90;;;14.80;99.90;;;;;;5010249;28;20452;-70
2022/10/03 08:55:47;;;;;;;1999.90;999.90;;;14.70;99.90;;;;;;5003653;28;20475;-70
2022/10/03 08:58:49;;;;;;;1999.90;999.90;;;14.80;99.90;;;;;;5073263;28;20492;-70
2022/10/03 09:01:32;;;;;;;1999.90;999.90;;;15.00;99.90;;;;;;5090194;28;20460;-69
2022/10/03 09:04:35;;;;;;;1999.90;999.90;;;15.00;99.90;;;;;;5085879;28;20469;-70
2022/10/03 09:07:35;;;;;;;1999.90;999.90;;;15.10;99.90;;;;;;5089527;28;20498;-73
2022/10/03 09:10:35;;;;;;;1999.90;999.90;;;15.00;99.90;;;;;;5092482;28;20460;-73
2022/10/03 09:13:35;;;;;;;1999.90;999.90;;;15.00;99.90;;;;;;5092398;28;20436;-71
2022/10/03 09:16:35;;;;;;;1999.90;999.90;;;14.80;99.90;;;;;;5091038;28;20508;-70
2022/10/03 09:19:23;;;;;;;1999.90;999.90;;;14.70;99.90;;;;;;5091186;28;20457;-71
2022/10/03 09:22:14;;;;;;;1999.90;999.90;;;14.80;99.90;;;;;;5092334;28;20460;-71
2022/10/03 09:25:06;;;;;;;1999.90;999.90;;;14.90;99.90;;;;;;5072693;28;20938;-71
2022/10/03 09:28:20;;;;;;;1999.90;999.90;;;15.20;99.90;;;;;;5073122;28;20508;-74
2022/10/03 09:30:53;;;;;;;1999.90;999.90;;;15.60;99.90;;;;;;5069316;28;20463;-73
2022/10/03 09:33:56;;;;;;;1999.90;999.90;;;15.60;99.90;;;;;;5072623;28;20441;-71
2022/10/03 09:36:56;;;;;;;1999.90;999.90;;;15.60;99.90;;;;;;5092440;28;20486;-71
2022/10/03 09:40:00;;;;;;;1999.90;999.90;;;15.70;99.90;;;;;;5092639;28;20445;-73
2022/10/03 09:43:01;;;;;;;1999.90;999.90;;;15.50;99.90;;;;;;5092887;28;20908;-74
2022/10/03 09:46:07;;;;;;;1999.90;999.90;;;15.30;99.90;;;;;;5092698;28;20446;-73
2022/10/03 09:48:55;;;;;;;1999.90;999.90;;;15.30;99.90;;;;;;5091470;28;20479;-73
2022/10/03 09:51:36;;;;;;;1999.90;999.90;;;15.80;99.90;;;;;;5092777;28;20445;-73
2022/10/03 09:54:39;;;;;;;1999.90;999.90;;;15.70;99.90;;;;;;5092937;28;20451;-74
2022/10/03 09:57:41;;;;;;;1999.90;999.90;;;15.90;99.90;;;;;;5092503;28;20472;-74
2022/10/03 10:00:20;;;;;;;1999.90;999.90;;;15.80;99.90;;;;;;5061603;28;20533;-74
2022/10/03 10:03:27;;;;;;;1999.90;999.90;;;15.70;99.90;;;;;;5091351;28;20898;-73
2022/10/03 10:06:34;;;;;;;1999.90;999.90;;;15.60;99.90;;;;;;5057986;28;20464;-73
2022/10/03 10:09:41;;;;;;;1999.90;999.90;;;15.60;99.90;;;;;;5092331;28;20467;-74
2022/10/03 10:13:05;;;;;;;1999.90;999.90;;;15.60;99.90;;;;;;5092401;28;20440;-74
2022/10/03 10:16:08;;;;;;;1999.90;999.90;;;15.60;99.90;;;;;;5092041;28;20525;-71
2022/10/03 10:19:04;;;;;;;1999.90;999.90;;;15.60;99.90;;;;;;5090940;28;20543;-71
2022/10/03 10:21:57;;;;;;;1999.90;999.90;;;15.40;99.90;;;;;;5071964;28;20921;-73
2022/10/03 10:25:07;;;;;;;1999.90;999.90;;;15.70;99.90;;;;;;5071700;28;20430;-68
2022/10/03 10:28:06;;;;;;;1999.90;999.90;;;15.80;99.90;;;;;;5071932;28;20520;-71
2022/10/03 10:30:58;;;;;;;1999.90;999.90;;;15.70;99.90;;;;;;5070908;28;20949;-69
2022/10/03 10:34:11;;;;;;;1999.90;999.90;;;15.60;99.90;;;;;;5088731;28;20449;-70
2022/10/03 10:37:31;;;;;;;1999.90;999.90;;;15.50;99.90;;;;;;4989964;28;21030;-73
2022/10/03 10:40:36;;;;;;;1999.90;999.90;;;15.40;99.90;;;;;;5071781;28;20441;-73
2022/10/03 10:43:48;;;;;;;1999.90;999.90;;;15.40;99.90;;;;;;5071798;28;20442;-71
2022/10/03 10:46:53;;;;;;;1999.90;999.90;;;15.10;99.90;;;;;;5009152;28;20474;-70
2022/10/03 10:49:56;;;;;;;1999.90;999.90;;;15.00;99.90;;;;;;5091160;28;20855;-71
2022/10/03 10:53:02;;;;;;;1999.90;999.90;;;15.10;99.90;;;;;;5091761;28;20451;-71
2022/10/03 10:56:05;;;;;;;1999.90;999.90;;;15.20;99.90;;;;;;5090264;28;20443;-72
2022/10/03 10:59:25;;;;;;;1999.90;999.90;;;15.10;99.90;;;;;;5091889;28;20527;-72
2022/10/03 11:02:43;;;;;;;1999.90;999.90;;;15.70;99.90;;;;;;5090546;28;20471;-70
2022/10/03 11:05:42;;;;;;;1999.90;999.90;;;16.10;99.90;;;;;;5061594;28;20484;-72
2022/10/03 11:08:49;;;;;;;1999.90;999.90;;;16.10;99.90;;;;;;5091734;28;20468;-71
2022/10/03 11:11:52;;;;;;;1999.90;999.90;;;16.10;99.90;;;;;;5091496;28;20993;-72
2022/10/03 11:14:47;;;;;;;1999.90;999.90;;;16.20;99.90;;;;;;5091515;28;20444;-70
2022/10/03 11:17:40;;;;;;;1999.90;999.90;;;16.30;99.90;;;;;;5043639;28;20483;-72
2022/10/03 11:20:40;;;;;;;1999.90;999.90;;;16.70;99.90;;;;;;5091584;28;20522;-72
2022/10/03 11:23:46;;;;;;;1999.90;999.90;;;17.30;99.90;;;;;;5091768;28;20814;-72
2022/10/03 11:26:49;;;;;;;1999.90;999.90;;;17.80;99.90;;;;;;5077395;28;20987;-72
2022/10/03 11:29:52;;;;;;;1999.90;999.90;;;17.80;99.90;;;;;;5091641;28;20483;-71
2022/10/03 11:33:10;;;;;;;1999.90;999.90;;;17.50;99.90;;;;;;5090712;28;20464;-71
2022/10/03 11:36:07;;;;;;;1999.90;999.90;;;17.00;99.90;;;;;;5091293;28;20456;-71
2022/10/03 11:38:38;;;;;;;1999.90;999.90;;;16.60;99.90;;;;;;5091754;28;20486;-72
2022/10/03 11:41:17;;;;;;;1999.90;999.90;;;16.40;99.90;;;;;;5091211;28;20436;-71
2022/10/03 11:44:06;;;;;;;1999.90;999.90;;;16.20;99.90;;;;;;5090441;28;20500;-71
2022/10/03 11:46:53;;;;;;;1999.90;999.90;;;16.30;99.90;;;;;;5083728;28;20465;-71
2022/10/03 11:49:51;;;;;;;1999.90;999.90;;;16.00;99.90;;;;;;5091382;28;20560;-71
2022/10/03 11:52:30;;;;;;;1999.90;999.90;;;15.80;99.90;;;;;;5057108;28;20456;-70
2022/10/03 11:55:16;;;;;;;1999.90;999.90;;;15.40;99.90;;;;;;5091264;28;20456;-72
2022/10/03 11:57:45;;;;;;;1999.90;999.90;;;15.20;99.90;;;;;;5101938;22;20488;-76
2022/10/03 12:00:16;;;;;;;1999.90;999.90;;;15.60;99.90;;;;;;5090349;28;20488;-76
2022/10/03 12:03:12;;;;;;;1999.90;999.90;;;15.20;99.90;;;;;;5091926;28;20437;-76
2022/10/03 12:05:48;;;;;;;1999.90;999.90;;;15.20;99.90;;;;;;5093373;28;20433;-75
2022/10/03 12:11:18;;;;;;;1999.90;999.90;;;14.90;99.90;;;;;;5074784;28;20842;-75
2022/10/03 12:14:10;;;;;;;1999.90;999.90;;;14.80;99.90;;;;;;5076315;28;20445;-75
2022/10/03 12:16:57;;;;;;;1999.90;999.90;;;14.60;99.90;;;;;;5076351;28;20911;-74
2022/10/03 12:19:31;;;;;;;1999.90;999.90;;;14.50;99.90;;;;;;5075318;28;20467;-73
2022/10/03 12:22:07;;;;;;;1999.90;999.90;;;14.30;99.90;;;;;;5075353;28;20965;-76
2022/10/03 12:24:40;;;;;;;1999.90;999.90;;;14.30;99.90;;;;;;5074333;28;20465;-76
2022/10/03 12:27:17;;;;;;;1999.90;999.90;;;14.50;99.90;;;;;;5075375;28;20849;-77
2022/10/03 12:29:57;;;;;;;1999.90;999.90;;;14.80;99.90;;;;;;5075947;28;20485;-76
2022/10/03 12:32:32;;;;;;;1999.90;999.90;;;15.30;99.90;;;;;;5075324;28;20449;-77
2022/10/03 12:35:14;;;;;;;1999.90;999.90;;;15.40;99.90;;;;;;5075009;28;20809;-77
2022/10/03 12:37:48;;;;;;;1999.90;999.90;;;15.80;99.90;;;;;;5073196;28;21001;-78
2022/10/03 12:40:23;;;;;;;1999.90;999.90;;;16.20;99.90;;;;;;5073791;28;20445;-77
2022/10/03 12:43:03;;;;;;;1999.90;999.90;;;16.50;99.90;;;;;;5074037;28;20815;-76
2022/10/03 12:45:36;;;;;;;1999.90;999.90;;;16.70;99.90;;;;;;5073871;28;20445;-75
2022/10/03 12:48:26;;;;;;;1999.90;999.90;;;17.00;99.90;;;;;;5074196;28;20492;-75
2022/10/03 12:51:00;;;;;;;1999.90;999.90;;;17.40;99.90;;;;;;5073832;28;20434;-74
2022/10/03 12:53:37;;;;;;;1999.90;999.90;;;17.60;99.90;;;;;;5066092;28;20453;-75
2022/10/03 12:56:13;;;;;;;1999.90;999.90;;;17.60;99.90;;;;;;5073305;28;20468;-74
2022/10/03 12:59:06;;;;;;;1999.90;999.90;;;17.60;99.90;;;;;;5074431;28;20451;-75
2022/10/03 13:01:58;;;;;;;1999.90;999.90;;;17.60;99.90;;;;;;5073872;28;20993;-77
2022/10/03 13:04:38;;;;;;;1999.90;999.90;;;17.50;99.90;;;;;;5054740;28;20823;-74
2022/10/03 13:07:26;;;;;;;1999.90;999.90;;;17.60;99.90;;;;;;5074158;28;20518;-74
2022/10/03 13:10:08;;;;;;;1999.90;999.90;;;17.70;99.90;;;;;;5074410;28;20980;-74
2022/10/03 13:12:44;;;;;;;1999.90;999.90;;;17.80;99.90;;;;;;5073388;28;20449;-74
2022/10/03 13:15:39;;;;;;;1999.90;999.90;;;18.10;99.90;;;;;;5073843;28;20534;-75
2022/10/03 13:18:18;;;;;;;1999.90;999.90;;;18.60;99.90;;;;;;5070012;28;20445;-74
2022/10/03 13:20:55;;;;;;;1999.90;999.90;;;17.90;99.90;;;;;;5073231;28;20441;-75
2022/10/03 13:23:31;;;;;;;1999.90;999.90;;;17.80;99.90;;;;;;5073620;28;20432;-75
2022/10/03 13:26:08;;;;;;;1999.90;999.90;;;17.60;99.90;;;;;;5073341;28;20527;-75
2022/10/03 13:28:48;;;;;;;1999.90;999.90;;;17.40;99.90;;;;;;5073263;28;20481;-79
2022/10/03 13:31:22;;;;;;;1999.90;999.90;;;17.10;99.90;;;;;;5072082;28;20457;-73
2022/10/03 13:33:53;;;;;;;1999.90;999.90;;;16.90;99.90;;;;;;5073486;28;20779;-73
2022/10/03 13:36:26;;;;;;;1999.90;999.90;;;16.90;99.90;;;;;;5073571;28;20461;-75
2022/10/03 13:39:06;;;;;;;1999.90;999.90;;;16.90;99.90;;;;;;5073795;28;20513;-75
2022/10/03 13:41:47;;;;;;;1999.90;999.90;;;16.90;99.90;;;;;;5073909;28;20449;-75
2022/10/03 13:44:21;;;;;;;1999.90;999.90;;;17.10;99.90;;;;;;5071908;28;20461;-75
2022/10/03 13:46:53;;;;;;;1999.90;999.90;;;17.10;99.90;;;;;;5072806;28;20503;-75
2022/10/03 13:49:30;;;;;;;1999.90;999.90;;;16.90;99.90;;;;;;5073344;28;20496;-75
2022/10/03 13:52:03;;;;;;;1999.90;999.90;;;16.80;99.90;;;;;;5073713;28;20438;-75
2022/10/03 13:55:01;;;;;;;1999.90;999.90;;;16.80;99.90;;;;;;5071486;28;20464;-75
2022/10/03 13:57:32;;;;;;;1999.90;999.90;;;16.90;99.90;;;;;;5052695;28;20478;-75